Bahri Jazan — HZFI — position and weather

sailwx.info

Track history (hours):
 
Tides and Currents Weather Stations Pressure Air Temp Water Temp Dewpoint Dewpoint Depression Visibility Wind Speed Wind Dir Waves Ship Positions

Bahri Jazan

Last reported at 2017-Oct-24 15:01 UTC. Time now 2017-Nov-23 05:07 UTC.
Position N 36°21' E 014°46'.
Warning: this ship's position is 29 days out of date.

Length 225 m; draft 8.4 m.

Type: Ship (hazmat cat D). MMSI: 403533001.

Date/timePositionNaut miles runAvg speedWind from/ knotsBaromVisibWave heightAir tempDewpointWater temp
2017-Oct-24 15:01N 36°21' E 014°46'214.2
2017-Oct-24 14:53N 36°21' E 014°44'514.2
2017-Oct-24 14:30N 36°23' E 014°38'714.4
2017-Oct-24 14:01N 36°25' E 014°29'714.4
2017-Oct-24 13:30N 36°27' E 014°20'714.3
2017-Oct-24 13:00N 36°29' E 014°12'714.4
2017-Oct-24 12:30N 36°31' E 014°03'714.3
2017-Oct-24 12:00N 36°33' E 013°55'714.3
2017-Oct-24 11:30N 36°35' E 013°46'  
2017-Oct-21 19:09N 37°25' E 002°12'411.7
2017-Oct-21 18:46N 37°23' E 002°07'311.7
2017-Oct-21 18:30N 37°22' E 002°03'611.7
2017-Oct-21 18:00N 37°20' E 001°56'611.7
2017-Oct-21 17:30N 37°18' E 001°49'711.7
2017-Oct-21 16:52N 37°16' E 001°40'1011.6
2017-Oct-21 16:02N 37°13' E 001°29'111.5
2017-Oct-21 15:59N 37°13' E 001°28'1111.6
2017-Oct-21 15:02N 37°10' E 001°15'011.6
2017-Oct-21 15:00N 37°10' E 001°14'611.6
2017-Oct-21 14:30N 37°08' E 001°07'1212.0
2017-Oct-21 13:30N 37°04' E 000°53'712.1
2017-Oct-21 12:57N 37°03' E 000°45'612.1
2017-Oct-21 12:28N 37°01' E 000°38'711.7
2017-Oct-21 11:53N 36°59' E 000°30'612.5
2017-Oct-21 11:23N 36°57' E 000°22'812.5
2017-Oct-21 10:45N 36°54' E 000°13'3512.2
2017-Oct-21 07:51N 36°43' W 000°29'3 9.6
2017-Oct-21 07:30N 36°42' W 000°33'2 0.2
2017-Oct-20 23:07N 36°43' W 000°34'0 0.5
2017-Oct-20 23:00N 36°43' W 000°34'222 8.9
2017-Oct-19 22:10N 35°59' W 005°05'316.2
2017-Oct-19 22:00N 35°59' W 005°08'816.6
2017-Oct-19 21:31N 35°58' W 005°18'816.2
2017-Oct-19 21:01N 35°57' W 005°28'915.0
2017-Oct-19 20:25N 35°54' W 005°39'613.9
2017-Oct-19 20:00N 35°54' W 005°46'714.2
2017-Oct-19 19:30N 35°54' W 005°54'15013.3
2017-Oct-19 08:13N 36°28' W 008°56'413.3
2017-Oct-19 07:56N 36°31' W 008°59'8612.5
2017-Oct-19 01:00N 37°48' W 009°49'813.5
2017-Oct-19 00:23N 37°56' W 009°51'513.9
2017-Oct-19 00:00N 38°01' W 009°52'813.7
2017-Oct-18 23:27N 38°08' W 009°54'713.3
2017-Oct-18 22:54N 38°16' W 009°56'513.1
2017-Oct-18 22:30N 38°21' W 009°58'712.9
2017-Oct-18 22:00N 38°27' W 010°00'612.5
2017-Oct-18 21:30N 38°33' W 010°02'612.8
2017-Oct-18 21:00N 38°39' W 010°04'612.8
2017-Oct-18 20:30N 38°45' W 010°06'713.2
2017-Oct-18 20:00N 38°52' W 010°06'713.1
2017-Oct-18 19:30N 38°58' W 010°07'713.9
2017-Oct-18 19:00N 39°05' W 010°07'713.7
2017-Oct-18 18:30N 39°12' W 010°06'713.2
2017-Oct-18 18:00N 39°19' W 010°06'913.1
2017-Oct-18 17:20N 39°28' W 010°06'412.8
2017-Oct-18 17:00N 39°32' W 010°06'305 9.7
2017-Oct-17 09:29N 43°52' W 006°32'611.7
2017-Oct-17 08:57N 43°51' W 006°24'611.7
2017-Oct-17 08:27N 43°51' W 006°15'512.2
2017-Oct-17 08:00N 43°50' W 006°08'612.2
2017-Oct-17 07:30N 43°49' W 005°60'611.6
2017-Oct-17 07:00N 43°49' W 005°52'611.7
2017-Oct-17 06:30N 43°48' W 005°44'611.8
2017-Oct-17 06:00N 43°47' W 005°35'612.4
2017-Oct-17 05:30N 43°46' W 005°27'612.5
2017-Oct-17 05:00N 43°46' W 005°19'612.4
2017-Oct-17 04:30N 43°45' W 005°10'1212.3
2017-Oct-17 03:30N 43°43' W 004°53'612.0
2017-Oct-17 03:00N 43°43' W 004°45'612.2
2017-Oct-17 02:30N 43°42' W 004°37'612.1
2017-Oct-17 02:00N 43°41' W 004°28'612.0
2017-Oct-17 01:30N 43°40' W 004°20'612.0
2017-Oct-17 01:00N 43°40' W 004°12'612.3
2017-Oct-17 00:30N 43°39' W 004°03'612.7
2017-Oct-17 00:00N 43°38' W 003°55'713.2
2017-Oct-16 23:30N 43°37' W 003°46'713.1
2017-Oct-16 23:00N 43°37' W 003°37'612.9
2017-Oct-16 22:30N 43°36' W 003°28'612.5
2017-Oct-16 22:00N 43°35' W 003°19'713.9
2017-Oct-16 21:30N 43°30' W 003°12'713.7
2017-Oct-16 21:00N 43°25' W 003°06'4 8.8
2017-Oct-16 20:30N 43°21' W 003°03'0 0.5
2017-Oct-16 19:58N 43°21' W 003°03'0 0.0
2017-Oct-16 19:28N 43°21' W 003°03'0 0.0
2017-Oct-16 18:58N 43°21' W 003°03'0 0.0
2017-Oct-16 17:58N 43°21' W 003°03'0 0.0
2017-Oct-16 17:28N 43°21' W 003°03'0 0.0
2017-Oct-16 16:58N 43°21' W 003°03'0 0.0
2017-Oct-16 16:28N 43°21' W 003°03'0 0.0
2017-Oct-16 15:58N 43°21' W 003°03'0 0.0
2017-Oct-16 15:28N 43°21' W 003°03'0 0.0
2017-Oct-16 14:58N 43°21' W 003°03'0 0.0
2017-Oct-16 14:28N 43°21' W 003°03'0 0.0
2017-Oct-16 13:28N 43°21' W 003°03'0 0.0
2017-Oct-16 12:58N 43°21' W 003°03'0 0.0
2017-Oct-16 12:28N 43°21' W 003°03'0 0.0
2017-Oct-16 11:58N 43°21' W 003°03'0 0.0
2017-Oct-16 11:28N 43°21' W 003°03'0 0.0
2017-Oct-16 10:58N 43°21' W 003°03'0 0.0
2017-Oct-16 10:28N 43°21' W 003°03'0 0.0
2017-Oct-16 09:58N 43°21' W 003°03'0 0.0
2017-Oct-16 09:28N 43°21' W 003°03'0 0.0
2017-Oct-16 08:58N 43°21' W 003°03'0 0.0
2017-Oct-16 08:28N 43°21' W 003°03'0 0.0
2017-Oct-16 07:58N 43°21' W 003°03'0 0.0
2017-Oct-16 07:28N 43°21' W 003°03'0 0.0
2017-Oct-16 06:58N 43°21' W 003°03'0 0.0
2017-Oct-16 06:28N 43°21' W 003°03'0 0.0
2017-Oct-16 05:58N 43°21' W 003°03'0 0.0
2017-Oct-16 05:28N 43°21' W 003°03'0 0.0
2017-Oct-16 04:58N 43°21' W 003°03'0 0.0
2017-Oct-16 04:28N 43°21' W 003°03'0 0.0
2017-Oct-16 03:58N 43°21' W 003°03'0 0.0
2017-Oct-16 03:28N 43°21' W 003°03'0 0.0
2017-Oct-16 02:58N 43°21' W 003°03'0 0.0
2017-Oct-16 02:28N 43°21' W 003°03'0 0.0
2017-Oct-16 01:58N 43°21' W 003°03'0 0.0
2017-Oct-16 01:28N 43°21' W 003°03'0 0.0
2017-Oct-16 00:58N 43°21' W 003°03'0 0.0
2017-Oct-16 00:28N 43°21' W 003°03'0 0.0
2017-Oct-15 23:58N 43°21' W 003°03'0 0.0
2017-Oct-15 23:28N 43°21' W 003°03'0 0.0
2017-Oct-15 22:58N 43°21' W 003°03'0 0.0
2017-Oct-15 22:28N 43°21' W 003°03'0 0.0
2017-Oct-15 21:58N 43°21' W 003°03'0 0.0
2017-Oct-15 21:28N 43°21' W 003°03'0 0.0
2017-Oct-15 20:58N 43°21' W 003°03'0 0.0
2017-Oct-15 20:28N 43°21' W 003°03'0 0.0
2017-Oct-15 19:58N 43°21' W 003°03'0 0.0
2017-Oct-15 19:28N 43°21' W 003°03'0 0.0
2017-Oct-15 18:58N 43°21' W 003°03'0 0.0
2017-Oct-15 18:28N 43°21' W 003°03'0 0.0
2017-Oct-15 17:58N 43°21' W 003°03'0 0.0
2017-Oct-15 17:28N 43°21' W 003°03'0 0.0
2017-Oct-15 16:58N 43°21' W 003°03'0 0.0
2017-Oct-15 16:28N 43°21' W 003°03'0 0.0
2017-Oct-15 16:00N 43°21' W 003°03'1 1.1
2017-Oct-15 15:30N 43°21' W 003°03'3 6.4
2017-Oct-15 15:00N 43°24' W 003°05'1211.7
2017-Oct-15 14:00N 43°34' W 003°12'612.5
2017-Oct-15 13:30N 43°40' W 003°15'713.2
2017-Oct-15 13:01N 43°46' W 003°19'713.9
2017-Oct-15 12:31N 43°53' W 003°22'714.2
2017-Oct-15 12:00N 43°59' W 003°26'714.5
2017-Oct-15 11:31N 44°06' W 003°30'714.2
2017-Oct-15 11:01N 44°12' W 003°34'714.5
2017-Oct-15 10:31N 44°19' W 003°38'714.2
2017-Oct-15 10:01N 44°26' W 003°42'714.0
2017-Oct-15 09:31N 44°32' W 003°46'714.2
2017-Oct-15 09:01N 44°39' W 003°49'714.4
2017-Oct-15 08:31N 44°45' W 003°53'714.3
2017-Oct-15 08:01N 44°52' W 003°57'714.2
2017-Oct-15 07:30N 44°58' W 004°01'714.6
2017-Oct-15 07:01N 45°05' W 004°05'714.8
2017-Oct-15 06:31N 45°12' W 004°09'714.6
2017-Oct-15 06:01N 45°18' W 004°14'714.5
2017-Oct-15 05:31N 45°25' W 004°18'714.3
2017-Oct-15 05:01N 45°32' W 004°21'714.3
2017-Oct-15 04:31N 45°38' W 004°25'714.8
2017-Oct-15 04:01N 45°45' W 004°29'815.0
2017-Oct-15 03:31N 45°52' W 004°34'714.9
2017-Oct-15 03:01N 45°59' W 004°38'815.1
2017-Oct-15 02:31N 46°06' W 004°42'815.3
2017-Oct-15 02:01N 46°13' W 004°46'815.1
2017-Oct-15 01:31N 46°20' W 004°51'714.7
2017-Oct-15 01:01N 46°27' W 004°55'714.7
2017-Oct-15 00:30N 46°33' W 004°59'714.7
2017-Oct-15 00:00N 46°40' W 005°03'815.0
2017-Oct-14 23:31N 46°47' W 005°07'815.2
2017-Oct-14 23:01N 46°54' W 005°11'714.8
2017-Oct-14 22:31N 47°01' W 005°16'815.1
2017-Oct-14 22:01N 47°08' W 005°20'714.8
2017-Oct-14 21:31N 47°15' W 005°24'714.8
2017-Oct-14 21:01N 47°22' W 005°28'714.5
2017-Oct-14 20:30N 47°28' W 005°32'714.4
2017-Oct-14 20:00N 47°35' W 005°37'814.5
2017-Oct-14 19:27N 47°42' W 005°41'714.7
2017-Oct-14 19:01N 47°48' W 005°45'814.9
2017-Oct-14 18:29N 47°55' W 005°50'715.2
2017-Oct-14 18:00N 48°02' W 005°55'815.1
2017-Oct-14 17:27N 48°09' W 006°00'714.8
2017-Oct-14 17:00N 48°16' W 006°03'  
Track history (hours):
 
Tides and Currents Weather Stations Pressure Air Temp Water Temp Dewpoint Dewpoint Depression Visibility Wind Speed Wind Dir Waves Ship Positions

Bahri Jazan

Last reported at 2017-Oct-24 15:01 UTC. Time now 2017-Nov-23 05:07 UTC.
Position N 36°21' E 014°46'.
Warning: this ship's position is 29 days out of date.

Length 225 m; draft 8.4 m.

Type: Ship (hazmat cat D). MMSI: 403533001.

Date/timePositionNaut miles runAvg speedWind from/ knotsBaromVisibWave heightAir tempDewpointWater temp
2017-Oct-24 15:01N 36°21' E 014°46'214.2
2017-Oct-24 14:53N 36°21' E 014°44'514.2
2017-Oct-24 14:30N 36°23' E 014°38'714.4
2017-Oct-24 14:01N 36°25' E 014°29'714.4
2017-Oct-24 13:30N 36°27' E 014°20'714.3
2017-Oct-24 13:00N 36°29' E 014°12'714.4
2017-Oct-24 12:30N 36°31' E 014°03'714.3
2017-Oct-24 12:00N 36°33' E 013°55'714.3
2017-Oct-24 11:30N 36°35' E 013°46'  
2017-Oct-21 19:09N 37°25' E 002°12'411.7
2017-Oct-21 18:46N 37°23' E 002°07'311.7
2017-Oct-21 18:30N 37°22' E 002°03'611.7
2017-Oct-21 18:00N 37°20' E 001°56'611.7
2017-Oct-21 17:30N 37°18' E 001°49'711.7
2017-Oct-21 16:52N 37°16' E 001°40'1011.6
2017-Oct-21 16:02N 37°13' E 001°29'111.5
2017-Oct-21 15:59N 37°13' E 001°28'1111.6
2017-Oct-21 15:02N 37°10' E 001°15'011.6
2017-Oct-21 15:00N 37°10' E 001°14'611.6
2017-Oct-21 14:30N 37°08' E 001°07'1212.0
2017-Oct-21 13:30N 37°04' E 000°53'712.1
2017-Oct-21 12:57N 37°03' E 000°45'612.1
2017-Oct-21 12:28N 37°01' E 000°38'711.7
2017-Oct-21 11:53N 36°59' E 000°30'612.5
2017-Oct-21 11:23N 36°57' E 000°22'812.5
2017-Oct-21 10:45N 36°54' E 000°13'3512.2
2017-Oct-21 07:51N 36°43' W 000°29'3 9.6
2017-Oct-21 07:30N 36°42' W 000°33'2 0.2
2017-Oct-20 23:07N 36°43' W 000°34'0 0.5
2017-Oct-20 23:00N 36°43' W 000°34'222 8.9
2017-Oct-19 22:10N 35°59' W 005°05'316.2
2017-Oct-19 22:00N 35°59' W 005°08'816.6
2017-Oct-19 21:31N 35°58' W 005°18'816.2
2017-Oct-19 21:01N 35°57' W 005°28'915.0
2017-Oct-19 20:25N 35°54' W 005°39'613.9
2017-Oct-19 20:00N 35°54' W 005°46'714.2
2017-Oct-19 19:30N 35°54' W 005°54'15013.3
2017-Oct-19 08:13N 36°28' W 008°56'413.3
2017-Oct-19 07:56N 36°31' W 008°59'8612.5
2017-Oct-19 01:00N 37°48' W 009°49'813.5
2017-Oct-19 00:23N 37°56' W 009°51'513.9
2017-Oct-19 00:00N 38°01' W 009°52'813.7
2017-Oct-18 23:27N 38°08' W 009°54'713.3
2017-Oct-18 22:54N 38°16' W 009°56'513.1
2017-Oct-18 22:30N 38°21' W 009°58'712.9
2017-Oct-18 22:00N 38°27' W 010°00'612.5
2017-Oct-18 21:30N 38°33' W 010°02'612.8
2017-Oct-18 21:00N 38°39' W 010°04'612.8
2017-Oct-18 20:30N 38°45' W 010°06'713.2
2017-Oct-18 20:00N 38°52' W 010°06'713.1
2017-Oct-18 19:30N 38°58' W 010°07'713.9
2017-Oct-18 19:00N 39°05' W 010°07'713.7
2017-Oct-18 18:30N 39°12' W 010°06'713.2
2017-Oct-18 18:00N 39°19' W 010°06'913.1
2017-Oct-18 17:20N 39°28' W 010°06'412.8
2017-Oct-18 17:00N 39°32' W 010°06'305 9.7
2017-Oct-17 09:29N 43°52' W 006°32'611.7
2017-Oct-17 08:57N 43°51' W 006°24'611.7
2017-Oct-17 08:27N 43°51' W 006°15'512.2
2017-Oct-17 08:00N 43°50' W 006°08'612.2
2017-Oct-17 07:30N 43°49' W 005°60'611.6
2017-Oct-17 07:00N 43°49' W 005°52'611.7
2017-Oct-17 06:30N 43°48' W 005°44'611.8
2017-Oct-17 06:00N 43°47' W 005°35'612.4
2017-Oct-17 05:30N 43°46' W 005°27'612.5
2017-Oct-17 05:00N 43°46' W 005°19'612.4
2017-Oct-17 04:30N 43°45' W 005°10'1212.3
2017-Oct-17 03:30N 43°43' W 004°53'612.0
2017-Oct-17 03:00N 43°43' W 004°45'612.2
2017-Oct-17 02:30N 43°42' W 004°37'612.1
2017-Oct-17 02:00N 43°41' W 004°28'612.0
2017-Oct-17 01:30N 43°40' W 004°20'612.0
2017-Oct-17 01:00N 43°40' W 004°12'612.3
2017-Oct-17 00:30N 43°39' W 004°03'612.7
2017-Oct-17 00:00N 43°38' W 003°55'713.2
2017-Oct-16 23:30N 43°37' W 003°46'713.1
2017-Oct-16 23:00N 43°37' W 003°37'612.9
2017-Oct-16 22:30N 43°36' W 003°28'612.5
2017-Oct-16 22:00N 43°35' W 003°19'713.9
2017-Oct-16 21:30N 43°30' W 003°12'713.7
2017-Oct-16 21:00N 43°25' W 003°06'4 8.8
2017-Oct-16 20:30N 43°21' W 003°03'0 0.5
2017-Oct-16 19:58N 43°21' W 003°03'0 0.0
2017-Oct-16 19:28N 43°21' W 003°03'0 0.0
2017-Oct-16 18:58N 43°21' W 003°03'0 0.0
2017-Oct-16 17:58N 43°21' W 003°03'0 0.0
2017-Oct-16 17:28N 43°21' W 003°03'0 0.0
2017-Oct-16 16:58N 43°21' W 003°03'0 0.0
2017-Oct-16 16:28N 43°21' W 003°03'0 0.0
2017-Oct-16 15:58N 43°21' W 003°03'0 0.0
2017-Oct-16 15:28N 43°21' W 003°03'0 0.0
2017-Oct-16 14:58N 43°21' W 003°03'0 0.0
2017-Oct-16 14:28N 43°21' W 003°03'0 0.0
2017-Oct-16 13:28N 43°21' W 003°03'0 0.0
2017-Oct-16 12:58N 43°21' W 003°03'0 0.0
2017-Oct-16 12:28N 43°21' W 003°03'0 0.0
2017-Oct-16 11:58N 43°21' W 003°03'0 0.0
2017-Oct-16 11:28N 43°21' W 003°03'0 0.0
2017-Oct-16 10:58N 43°21' W 003°03'0 0.0
2017-Oct-16 10:28N 43°21' W 003°03'0 0.0
2017-Oct-16 09:58N 43°21' W 003°03'0 0.0
2017-Oct-16 09:28N 43°21' W 003°03'0 0.0
2017-Oct-16 08:58N 43°21' W 003°03'0 0.0
2017-Oct-16 08:28N 43°21' W 003°03'0 0.0
2017-Oct-16 07:58N 43°21' W 003°03'0 0.0
2017-Oct-16 07:28N 43°21' W 003°03'0 0.0
2017-Oct-16 06:58N 43°21' W 003°03'0 0.0
2017-Oct-16 06:28N 43°21' W 003°03'0 0.0
2017-Oct-16 05:58N 43°21' W 003°03'0 0.0
2017-Oct-16 05:28N 43°21' W 003°03'0 0.0
2017-Oct-16 04:58N 43°21' W 003°03'0 0.0
2017-Oct-16 04:28N 43°21' W 003°03'0 0.0
2017-Oct-16 03:58N 43°21' W 003°03'0 0.0
2017-Oct-16 03:28N 43°21' W 003°03'0 0.0
2017-Oct-16 02:58N 43°21' W 003°03'0 0.0
2017-Oct-16 02:28N 43°21' W 003°03'0 0.0
2017-Oct-16 01:58N 43°21' W 003°03'0 0.0
2017-Oct-16 01:28N 43°21' W 003°03'0 0.0
2017-Oct-16 00:58N 43°21' W 003°03'0 0.0
2017-Oct-16 00:28N 43°21' W 003°03'0 0.0
2017-Oct-15 23:58N 43°21' W 003°03'0 0.0
2017-Oct-15 23:28N 43°21' W 003°03'0 0.0
2017-Oct-15 22:58N 43°21' W 003°03'0 0.0
2017-Oct-15 22:28N 43°21' W 003°03'0 0.0
2017-Oct-15 21:58N 43°21' W 003°03'0 0.0
2017-Oct-15 21:28N 43°21' W 003°03'0 0.0
2017-Oct-15 20:58N 43°21' W 003°03'0 0.0
2017-Oct-15 20:28N 43°21' W 003°03'0 0.0
2017-Oct-15 19:58N 43°21' W 003°03'0 0.0
2017-Oct-15 19:28N 43°21' W 003°03'0 0.0
2017-Oct-15 18:58N 43°21' W 003°03'0 0.0
2017-Oct-15 18:28N 43°21' W 003°03'0 0.0
2017-Oct-15 17:58N 43°21' W 003°03'0 0.0
2017-Oct-15 17:28N 43°21' W 003°03'0 0.0
2017-Oct-15 16:58N 43°21' W 003°03'0 0.0
2017-Oct-15 16:28N 43°21' W 003°03'0 0.0
2017-Oct-15 16:00N 43°21' W 003°03'1 1.1
2017-Oct-15 15:30N 43°21' W 003°03'3 6.4
2017-Oct-15 15:00N 43°24' W 003°05'1211.7
2017-Oct-15 14:00N 43°34' W 003°12'612.5
2017-Oct-15 13:30N 43°40' W 003°15'713.2
2017-Oct-15 13:01N 43°46' W 003°19'713.9
2017-Oct-15 12:31N 43°53' W 003°22'714.2
2017-Oct-15 12:00N 43°59' W 003°26'714.5
2017-Oct-15 11:31N 44°06' W 003°30'714.2
2017-Oct-15 11:01N 44°12' W 003°34'714.5
2017-Oct-15 10:31N 44°19' W 003°38'714.2
2017-Oct-15 10:01N 44°26' W 003°42'714.0
2017-Oct-15 09:31N 44°32' W 003°46'714.2
2017-Oct-15 09:01N 44°39' W 003°49'714.4
2017-Oct-15 08:31N 44°45' W 003°53'714.3
2017-Oct-15 08:01N 44°52' W 003°57'714.2
2017-Oct-15 07:30N 44°58' W 004°01'714.6
2017-Oct-15 07:01N 45°05' W 004°05'714.8
2017-Oct-15 06:31N 45°12' W 004°09'714.6
2017-Oct-15 06:01N 45°18' W 004°14'714.5
2017-Oct-15 05:31N 45°25' W 004°18'714.3
2017-Oct-15 05:01N 45°32' W 004°21'714.3
2017-Oct-15 04:31N 45°38' W 004°25'714.8
2017-Oct-15 04:01N 45°45' W 004°29'815.0
2017-Oct-15 03:31N 45°52' W 004°34'714.9
2017-Oct-15 03:01N 45°59' W 004°38'815.1
2017-Oct-15 02:31N 46°06' W 004°42'815.3
2017-Oct-15 02:01N 46°13' W 004°46'815.1
2017-Oct-15 01:31N 46°20' W 004°51'714.7
2017-Oct-15 01:01N 46°27' W 004°55'714.7
2017-Oct-15 00:30N 46°33' W 004°59'714.7
2017-Oct-15 00:00N 46°40' W 005°03'815.0
2017-Oct-14 23:31N 46°47' W 005°07'815.2
2017-Oct-14 23:01N 46°54' W 005°11'714.8
2017-Oct-14 22:31N 47°01' W 005°16'815.1
2017-Oct-14 22:01N 47°08' W 005°20'714.8
2017-Oct-14 21:31N 47°15' W 005°24'714.8
2017-Oct-14 21:01N 47°22' W 005°28'714.5
2017-Oct-14 20:30N 47°28' W 005°32'714.4
2017-Oct-14 20:00N 47°35' W 005°37'814.5
2017-Oct-14 19:27N 47°42' W 005°41'714.7
2017-Oct-14 19:01N 47°48' W 005°45'814.9
2017-Oct-14 18:29N 47°55' W 005°50'715.2
2017-Oct-14 18:00N 48°02' W 005°55'815.1
2017-Oct-14 17:27N 48°09' W 006°00'714.8
2017-Oct-14 17:00N 48°16' W 006°03'  

Dump ship's entire track history